createdAt,value
2023-02-20T00:01:56.780Z,102193.34
2023-02-20T00:04:23.276Z,102189.84
2023-02-20T00:06:49.891Z,102183.84
2023-02-20T00:09:16.556Z,102176.84
2023-02-20T00:11:43.123Z,102183.81
2023-02-20T00:14:09.617Z,102177.66
2023-02-20T00:16:36.132Z,102168.25
2023-02-20T00:19:02.580Z,102171.56
2023-02-20T00:21:29.056Z,102176.72
2023-02-20T00:23:55.479Z,102169.81
2023-02-20T00:26:21.893Z,102168.03
2023-02-20T00:28:48.357Z,102168.78
2023-02-20T00:31:18.384Z,102163.66
2023-02-20T00:33:45.079Z,102168.78
2023-02-20T00:36:16.936Z,102162.81
2023-02-20T00:38:45.093Z,102160.97
2023-02-20T00:41:14.235Z,102171.41
2023-02-20T00:43:41.963Z,102163.66
2023-02-20T00:46:11.909Z,102150.66
2023-02-20T00:48:38.546Z,102161.88
2023-02-20T00:51:05.206Z,102156.78
2023-02-20T00:53:31.768Z,102150.75
2023-02-20T00:55:58.178Z,102151.69
2023-02-20T00:58:24.608Z,102149.97
2023-02-20T01:00:51.095Z,102144.72
2023-02-20T01:03:17.625Z,102136.94
2023-02-20T01:05:44.023Z,102123.09
2023-02-20T01:08:10.452Z,102123.94
2023-02-20T01:10:36.988Z,102119.56
2023-02-20T01:13:03.410Z,102116.91
2023-02-20T01:15:29.803Z,102111.69
2023-02-20T01:17:56.271Z,102111.53
2023-02-20T01:20:22.845Z,102108.94
2023-02-20T01:22:49.250Z,102107.06
2023-02-20T01:25:15.875Z,102103.44
2023-02-20T01:27:42.484Z,102099.88
2023-02-20T01:30:09.552Z,102099.81
2023-02-20T01:32:36.028Z,102083.31
2023-02-20T01:35:02.594Z,102078.81
2023-02-20T01:37:29.060Z,102088.25
2023-02-20T01:39:55.530Z,102065.63
2023-02-20T01:42:25.000Z,102067.09
2023-02-20T01:44:51.673Z,102071.28
2023-02-20T01:47:20.813Z,102067.72
2023-02-20T01:49:57.949Z,102064.22
2023-02-20T01:52:33.856Z,102075.31
2023-02-20T01:55:05.830Z,102071.81
2023-02-20T01:57:35.307Z,102080.47
2023-02-20T02:00:22.136Z,102085.66
2023-02-20T02:02:53.523Z,102080.50
2023-02-20T02:05:20.762Z,102078.88
2023-02-20T02:07:47.593Z,102083.22
2023-02-20T02:10:18.457Z,102066.81
2023-02-20T02:12:49.332Z,102063.34
2023-02-20T02:15:18.857Z,102065.13
2023-02-20T02:18:03.527Z,102053.97
2023-02-20T02:20:43.807Z,102051.41
2023-02-20T02:23:41.931Z,102041.03
2023-02-20T02:26:37.747Z,102048.81
2023-02-20T02:29:41.325Z,102035.97
2023-02-20T02:32:26.767Z,102032.56
2023-02-20T02:34:59.155Z,102036.06
2023-02-20T02:37:37.145Z,102027.47
2023-02-20T02:40:27.859Z,102021.38
2023-02-20T02:43:08.022Z,102018.88
2023-02-20T02:45:46.440Z,102009.34
2023-02-20T02:48:32.306Z,102003.44
2023-02-20T02:51:23.698Z,102015.56
2023-02-20T02:54:09.231Z,102016.44
2023-02-20T02:56:45.890Z,101997.47
2023-02-20T02:59:18.039Z,101989.72
2023-02-20T03:01:50.410Z,101992.31
2023-02-20T03:04:23.422Z,101993.22
2023-02-20T03:06:55.659Z,101997.59
2023-02-20T03:09:36.165Z,101990.63
2023-02-20T03:12:06.575Z,102002.69
2023-02-20T03:15:00.674Z,101992.41
2023-02-20T03:17:54.408Z,101987.13
2023-02-20T03:20:22.709Z,101988.00
2023-02-20T03:22:52.832Z,101986.22
2023-02-20T03:25:29.182Z,101985.31
2023-02-20T03:28:06.343Z,101981.91
2023-02-20T03:30:55.399Z,101976.72
2023-02-20T03:33:49.394Z,101961.16
2023-02-20T03:36:47.978Z,101962.16
2023-02-20T03:39:40.011Z,101954.50
2023-02-20T03:42:29.007Z,101952.09
2023-02-20T03:44:57.206Z,101949.63
2023-02-20T03:47:27.122Z,101957.47
2023-02-20T03:49:56.204Z,101952.44
2023-02-20T03:52:23.434Z,101968.88
2023-02-20T03:54:50.726Z,101955.06
2023-02-20T03:57:31.084Z,101970.59
2023-02-20T04:00:06.531Z,101962.00
2023-02-20T04:02:38.966Z,101966.41
2023-02-20T04:05:17.052Z,101956.91
2023-02-20T04:07:51.511Z,101964.69
2023-02-20T04:10:24.826Z,101956.91
2023-02-20T04:12:53.436Z,101967.28
2023-02-20T04:15:21.087Z,101954.31
2023-02-20T04:17:52.878Z,101963.88
2023-02-20T04:20:19.448Z,101969.00
2023-02-20T04:22:50.113Z,101956.03
2023-02-20T04:25:42.281Z,101958.56
2023-02-20T04:28:09.205Z,101948.28
2023-02-20T04:30:35.749Z,101957.72
2023-02-20T04:33:02.517Z,101960.31
2023-02-20T04:35:29.012Z,101958.56
2023-02-20T04:37:56.066Z,101956.03
2023-02-20T04:40:24.349Z,101953.38
2023-02-20T04:42:50.774Z,101943.88
2023-02-20T04:45:17.783Z,101939.47
2023-02-20T04:47:45.266Z,101937.66
2023-02-20T04:50:26.694Z,101939.41
2023-02-20T04:52:53.761Z,101943.69
2023-02-20T04:55:20.563Z,101945.44
2023-02-20T04:57:47.849Z,101940.19
2023-02-20T05:00:16.362Z,101949.78
2023-02-20T05:02:43.402Z,101951.56
2023-02-20T05:05:25.030Z,101950.72
2023-02-20T05:08:02.924Z,101930.94
2023-02-20T05:10:31.481Z,101944.81
2023-02-20T05:12:58.531Z,101950.16
2023-02-20T05:15:26.642Z,101951.91
2023-02-20T05:17:53.355Z,101951.16
2023-02-20T05:20:20.028Z,101934.03
2023-02-20T05:22:47.635Z,101946.97
2023-02-20T05:25:15.513Z,101939.28
2023-02-20T05:27:42.595Z,101941.09
2023-02-20T05:30:10.406Z,101941.19
2023-02-20T05:32:37.694Z,101942.09
2023-02-20T05:35:04.225Z,101938.69
2023-02-20T05:37:33.190Z,101932.78
2023-02-20T05:39:59.958Z,101932.84
2023-02-20T05:42:26.384Z,101939.75
2023-02-20T05:44:53.931Z,101936.28
2023-02-20T05:47:20.424Z,101928.56
2023-02-20T05:49:47.580Z,101937.25
2023-02-20T05:52:14.131Z,101935.66
2023-02-20T05:54:41.670Z,101921.91
2023-02-20T05:57:08.972Z,101926.31
2023-02-20T05:59:35.399Z,101928.00
2023-02-20T06:02:02.060Z,101919.38
2023-02-20T06:04:29.553Z,101930.75
2023-02-20T06:06:56.216Z,101924.81
2023-02-20T06:09:22.737Z,101932.63
2023-02-20T06:11:58.346Z,101940.28
2023-02-20T06:14:27.694Z,101926.41
2023-02-20T06:16:56.378Z,101929.16
2023-02-20T06:19:25.171Z,101931.72
2023-02-20T06:21:53.647Z,101929.06
2023-02-20T06:24:21.284Z,101939.41
2023-02-20T06:26:47.888Z,101938.50
2023-02-20T06:29:16.577Z,101945.47
2023-02-20T06:31:43.185Z,101941.94
2023-02-20T06:34:10.592Z,101948.81
2023-02-20T06:36:40.291Z,101941.78
2023-02-20T06:39:08.947Z,101938.19
2023-02-20T06:41:35.408Z,101951.31
2023-02-20T06:44:02.316Z,101951.94
2023-02-20T06:46:28.842Z,101949.28
2023-02-20T06:48:58.524Z,101963.19
2023-02-20T06:51:28.067Z,101965.66
2023-02-20T06:53:54.600Z,101963.88
2023-02-20T06:56:24.080Z,101959.50
2023-02-20T06:58:52.262Z,101962.75
2023-02-20T07:01:20.291Z,101970.53
2023-02-20T07:03:50.292Z,101967.03
2023-02-20T07:06:17.791Z,101979.19
2023-02-20T07:08:44.449Z,101981.75
2023-02-20T07:11:11.730Z,101978.22
2023-02-20T07:13:38.329Z,101976.69
2023-02-20T07:16:05.103Z,101979.28
2023-02-20T07:18:31.653Z,101978.41
2023-02-20T07:20:58.108Z,101980.44
2023-02-20T07:23:24.693Z,101979.63
2023-02-20T07:25:51.438Z,101986.53
2023-02-20T07:28:18.919Z,101988.97
2023-02-20T07:30:49.122Z,101987.34
2023-02-20T07:33:17.574Z,101977.72
2023-02-20T07:35:44.708Z,101989.72
2023-02-20T07:38:11.295Z,101992.34
2023-02-20T07:40:39.924Z,101975.13
2023-02-20T07:43:06.654Z,101982.69
2023-02-20T07:45:33.137Z,101976.59
2023-02-20T07:47:59.604Z,101973.44
2023-02-20T07:50:26.148Z,101986.16
2023-02-20T07:52:52.658Z,101973.97
2023-02-20T07:55:19.703Z,101966.44
2023-02-20T07:57:47.831Z,101968.00
2023-02-20T08:00:16.486Z,101974.75
2023-02-20T08:02:42.878Z,101980.69
2023-02-20T08:05:09.849Z,101981.72
2023-02-20T08:07:36.824Z,101985.09
2023-02-20T08:10:05.092Z,101986.19
2023-02-20T08:12:31.962Z,101979.13
2023-02-20T08:14:58.372Z,101989.38
2023-02-20T08:17:29.693Z,101980.69
2023-02-20T08:20:00.881Z,101979.94
2023-02-20T08:22:40.146Z,101984.28
2023-02-20T08:25:07.933Z,101980.88
2023-02-20T08:27:38.202Z,101980.88
2023-02-20T08:30:06.749Z,101975.50
2023-02-20T08:32:33.294Z,101973.78
2023-02-20T08:34:59.847Z,101970.28
2023-02-20T08:37:26.249Z,101980.56
2023-02-20T08:39:52.663Z,101974.41
2023-02-20T08:42:19.161Z,101974.19
2023-02-20T08:44:45.673Z,101965.34
2023-02-20T08:47:12.078Z,101970.34
2023-02-20T08:49:38.543Z,101971.47
2023-02-20T08:52:06.047Z,101964.34
2023-02-20T08:54:32.752Z,101960.31
2023-02-20T08:56:59.245Z,101962.56
2023-02-20T08:59:25.837Z,101966.47
2023-02-20T09:01:52.345Z,101976.28
2023-02-20T09:04:20.824Z,101977.06
2023-02-20T09:06:47.341Z,101973.34
2023-02-20T09:09:13.749Z,101974.97
2023-02-20T09:11:40.377Z,101972.16
2023-02-20T09:14:07.044Z,101967.69
2023-02-20T09:16:33.601Z,101963.63
2023-02-20T09:19:01.011Z,101971.81
2023-02-20T09:21:29.272Z,101965.72
2023-02-20T09:23:55.747Z,101971.56
2023-02-20T09:26:22.204Z,101970.31
2023-02-20T09:28:48.682Z,101969.41
2023-02-20T09:31:15.214Z,101976.91
2023-02-20T09:33:47.732Z,101965.81
2023-02-20T09:36:17.380Z,101994.94
2023-02-20T09:38:43.861Z,101960.38
2023-02-20T09:41:25.942Z,101971.28
2023-02-20T09:44:24.580Z,101966.53
2023-02-20T09:46:52.835Z,101973.28
2023-02-20T09:49:25.259Z,101973.06
2023-02-20T09:51:56.134Z,101989.63
2023-02-20T09:54:31.878Z,101984.41
2023-02-20T09:57:00.301Z,101982.47
2023-02-20T09:59:43.354Z,101982.34
2023-02-20T10:02:34.441Z,101991.94
2023-02-20T10:05:13.432Z,101972.16
2023-02-20T10:07:42.047Z,101979.56
2023-02-20T10:10:20.827Z,101977.56
2023-02-20T10:12:50.308Z,101974.66
2023-02-20T10:15:20.710Z,101977.78
2023-02-20T10:17:55.056Z,101970.56
2023-02-20T10:20:30.700Z,101971.81
2023-02-20T10:23:24.350Z,101966.19
2023-02-20T10:25:59.927Z,101958.81
2023-02-20T10:28:26.981Z,101961.47
2023-02-20T10:31:30.138Z,101967.28
2023-02-20T10:34:03.900Z,101968.13
2023-02-20T10:36:54.966Z,101970.34
2023-02-20T10:39:23.354Z,101975.19
2023-02-20T10:41:55.305Z,101976.88
2023-02-20T10:44:30.976Z,101977.97
2023-02-20T10:47:02.250Z,101994.59
2023-02-20T10:49:41.888Z,101970.91
2023-02-20T10:52:29.600Z,101975.13
2023-02-20T10:55:14.958Z,101973.16
2023-02-20T10:57:48.292Z,101975.84
2023-02-20T11:00:22.798Z,101961.63
2023-02-20T11:03:04.208Z,101968.13
2023-02-20T11:05:35.512Z,101955.00
2023-02-20T11:08:01.974Z,101956.94
2023-02-20T11:10:28.553Z,101962.34
2023-02-20T11:13:00.783Z,101954.94
2023-02-20T11:15:32.554Z,101962.09
2023-02-20T11:17:59.922Z,101952.88
2023-02-20T11:20:32.723Z,101951.06
2023-02-20T11:23:01.490Z,101944.06
2023-02-20T11:25:30.390Z,101947.75
2023-02-20T11:28:12.146Z,101946.66
2023-02-20T11:30:40.278Z,101920.31
2023-02-20T11:33:22.317Z,101925.09
2023-02-20T11:36:10.119Z,101948.69
2023-02-20T11:38:37.997Z,101931.56
2023-02-20T11:41:09.817Z,101922.91
2023-02-20T11:44:00.060Z,101928.09
2023-02-20T11:46:27.945Z,101916.00
2023-02-20T11:48:54.659Z,101928.81
2023-02-20T11:51:50.619Z,101918.13
2023-02-20T11:54:25.684Z,101935.00
2023-02-20T11:57:22.828Z,101915.34
2023-02-20T12:00:09.904Z,101926.84
2023-02-20T12:02:36.474Z,101930.41
2023-02-20T12:05:15.005Z,101908.31
2023-02-20T12:07:53.578Z,101918.97
2023-02-20T12:10:25.951Z,101900.06
2023-02-20T12:12:53.266Z,101902.34
2023-02-20T12:15:22.934Z,101889.34
2023-02-20T12:18:18.243Z,101878.97
2023-02-20T12:20:53.494Z,101874.63
2023-02-20T12:23:56.444Z,101874.47
2023-02-20T12:26:44.469Z,101877.63
2023-02-20T12:29:49.770Z,101871.56
2023-02-20T12:32:29.670Z,101870.56
2023-02-20T12:35:34.959Z,101882.28
2023-02-20T12:38:28.775Z,101883.84
2023-02-20T12:41:11.036Z,101879.97
2023-02-20T12:44:13.592Z,101872.44
2023-02-20T12:47:15.668Z,101868.66
2023-02-20T12:49:54.998Z,101876.25
2023-02-20T12:52:46.519Z,101867.47
2023-02-20T12:55:26.879Z,101875.84
2023-02-20T12:58:01.304Z,101877.63
2023-02-20T13:00:34.603Z,101857.50
2023-02-20T13:03:06.799Z,101857.09
2023-02-20T13:05:37.959Z,101869.72
2023-02-20T13:08:12.151Z,101866.06
2023-02-20T13:11:00.194Z,101865.03
2023-02-20T13:13:36.429Z,101856.22
2023-02-20T13:16:13.682Z,101838.69
2023-02-20T13:18:48.241Z,101851.03
2023-02-20T13:21:22.723Z,101853.06
2023-02-20T13:23:52.952Z,101843.59
2023-02-20T13:26:34.715Z,101828.50
2023-02-20T13:29:17.896Z,101809.19
2023-02-20T13:31:52.000Z,101806.78
2023-02-20T13:34:18.434Z,101813.66
2023-02-20T13:36:46.913Z,101807.72
2023-02-20T13:39:23.180Z,101804.53
2023-02-20T13:41:55.692Z,101800.63
2023-02-20T13:44:28.268Z,101781.34
2023-02-20T13:47:05.192Z,101765.13
2023-02-20T13:49:49.746Z,101762.88
2023-02-20T13:52:41.790Z,101766.97
2023-02-20T13:55:11.378Z,101767.75
2023-02-20T13:57:46.991Z,101742.72
2023-02-20T14:00:20.220Z,101736.56
2023-02-20T14:02:46.740Z,101730.59
2023-02-20T14:05:20.002Z,101726.91
2023-02-20T14:07:46.924Z,101711.88
2023-02-20T14:10:24.135Z,101708.75
2023-02-20T14:12:59.180Z,101694.13
2023-02-20T14:15:25.949Z,101703.94
2023-02-20T14:17:54.703Z,101682.44
2023-02-20T14:20:32.603Z,101679.00
2023-02-20T14:23:21.403Z,101684.34
2023-02-20T14:26:25.989Z,101690.16
2023-02-20T14:28:57.494Z,101698.56
2023-02-20T14:31:25.249Z,101718.78
2023-02-20T14:34:19.901Z,101723.91
2023-02-20T14:37:16.707Z,101721.78
2023-02-20T14:40:11.616Z,101701.50
2023-02-20T14:42:44.007Z,101716.19
2023-02-20T14:45:22.738Z,101712.59
2023-02-20T14:47:52.311Z,101720.31
2023-02-20T14:50:23.564Z,101727.97
2023-02-20T14:53:15.679Z,101734.16
2023-02-20T14:55:42.449Z,101724.69
2023-02-20T14:58:14.751Z,101727.22
2023-02-20T15:00:43.142Z,101732.25
2023-02-20T15:03:29.806Z,101729.75
2023-02-20T15:06:02.464Z,101728.72
2023-02-20T15:08:33.209Z,101726.81
2023-02-20T15:11:06.809Z,101713.13
2023-02-20T15:13:37.850Z,101702.13
2023-02-20T15:16:24.593Z,101716.41
2023-02-20T15:18:51.670Z,101713.97
2023-02-20T15:21:58.446Z,101722.94
2023-02-20T15:24:24.831Z,101725.81
2023-02-20T15:26:52.249Z,101728.13
2023-02-20T15:29:18.648Z,101719.34
2023-02-20T15:31:47.250Z,101727.97
2023-02-20T15:34:36.695Z,101727.03
2023-02-20T15:37:22.741Z,101725.22
2023-02-20T15:39:54.490Z,101723.53
2023-02-20T15:42:24.896Z,101717.44
2023-02-20T15:44:53.107Z,101725.31
2023-02-20T15:47:19.547Z,101722.75
2023-02-20T15:49:46.012Z,101735.53
2023-02-20T15:52:18.566Z,101715.59
2023-02-20T15:54:53.254Z,101715.72
2023-02-20T15:57:19.913Z,101703.50
2023-02-20T15:59:47.634Z,101713.00
2023-02-20T16:02:21.232Z,101709.63
2023-02-20T16:04:48.775Z,101712.22
2023-02-20T16:07:17.067Z,101713.75
2023-02-20T16:09:43.823Z,101706.00
2023-02-20T16:12:21.309Z,101713.75
2023-02-20T16:14:53.474Z,101721.53
2023-02-20T16:17:29.346Z,101731.03
2023-02-20T16:19:55.806Z,101725.06
2023-02-20T16:22:22.313Z,101728.59
2023-02-20T16:24:49.177Z,101727.59
2023-02-20T16:27:25.499Z,101729.34
2023-02-20T16:29:53.931Z,101714.66
2023-02-20T16:32:30.497Z,101723.38
2023-02-20T16:34:58.975Z,101712.06
2023-02-20T16:37:26.721Z,101698.59
2023-02-20T16:39:53.265Z,101712.53
2023-02-20T16:42:22.452Z,101715.81
2023-02-20T16:44:49.683Z,101705.25
2023-02-20T16:47:19.200Z,101715.66
2023-02-20T16:49:47.669Z,101710.38
2023-02-20T16:52:27.474Z,101714.72
2023-02-20T16:54:55.004Z,101714.03
2023-02-20T16:57:23.761Z,101715.59
2023-02-20T16:59:54.406Z,101706.25
2023-02-20T17:02:32.110Z,101694.91
2023-02-20T17:04:59.385Z,101702.50
2023-02-20T17:07:26.409Z,101707.84
2023-02-20T17:09:53.631Z,101712.06
2023-02-20T17:12:21.994Z,101716.56
2023-02-20T17:14:48.707Z,101714.66
2023-02-20T17:17:16.183Z,101716.28
2023-02-20T17:19:43.724Z,101701.72
2023-02-20T17:22:12.051Z,101691.31
2023-02-20T17:24:43.161Z,101691.66
2023-02-20T17:27:11.510Z,101687.22
2023-02-20T17:29:38.728Z,101713.00
2023-02-20T17:32:05.400Z,101717.09
2023-02-20T17:34:31.932Z,101725.81
2023-02-20T17:36:58.659Z,101727.38
2023-02-20T17:39:25.344Z,101718.72
2023-02-20T17:41:53.700Z,101715.28
2023-02-20T17:44:27.495Z,101719.63
2023-02-20T17:46:56.467Z,101721.31
2023-02-20T17:49:27.031Z,101723.84
2023-02-20T17:51:58.459Z,101729.34
2023-02-20T17:54:25.366Z,101742.19
2023-02-20T17:56:52.162Z,101733.34
2023-02-20T17:59:18.902Z,101729.81
2023-02-20T18:01:45.673Z,101738.53
2023-02-20T18:04:12.344Z,101733.09
2023-02-20T18:06:39.507Z,101737.44
2023-02-20T18:09:08.190Z,101744.44
2023-02-20T18:11:35.311Z,101750.31
2023-02-20T18:14:02.231Z,101751.38
2023-02-20T18:16:28.996Z,101743.56
2023-02-20T18:18:55.601Z,101761.78
2023-02-20T18:21:27.767Z,101768.53
2023-02-20T18:23:54.660Z,101748.72
2023-02-20T18:26:21.134Z,101731.94
2023-02-20T18:28:48.435Z,101742.34
2023-02-20T18:31:17.507Z,101748.19
2023-02-20T18:33:44.764Z,101750.69
2023-02-20T18:36:11.312Z,101753.06
2023-02-20T18:38:37.853Z,101763.25
2023-02-20T18:41:04.511Z,101761.56
2023-02-20T18:43:30.994Z,101755.06
2023-02-20T18:45:57.573Z,101747.78
2023-02-20T18:48:24.039Z,101749.53
2023-02-20T18:50:51.658Z,101749.69
2023-02-20T18:53:18.250Z,101753.69
2023-02-20T18:55:44.758Z,101753.63
2023-02-20T18:58:11.259Z,101734.31
2023-02-20T19:00:39.593Z,101741.31
2023-02-20T19:03:06.666Z,101741.31
2023-02-20T19:05:33.325Z,101739.75
2023-02-20T19:08:01.922Z,101739.81
2023-02-20T19:10:28.402Z,101726.59
2023-02-20T19:12:55.348Z,101720.56
2023-02-20T19:15:23.016Z,101713.75
2023-02-20T19:17:49.526Z,101724.78
2023-02-20T19:20:29.201Z,101728.28
2023-02-20T19:22:57.087Z,101739.69
2023-02-20T19:25:23.639Z,101717.50
2023-02-20T19:27:50.671Z,101714.19
2023-02-20T19:30:20.543Z,101727.03
2023-02-20T19:32:47.570Z,101715.13
2023-02-20T19:35:16.333Z,101707.47
2023-02-20T19:37:43.136Z,101702.28
2023-02-20T19:40:10.046Z,101697.97
2023-02-20T19:42:36.513Z,101703.84
2023-02-20T19:45:04.655Z,101703.84
2023-02-20T19:47:31.159Z,101704.72
2023-02-20T19:49:57.574Z,101708.94
2023-02-20T19:52:24.035Z,101708.72
2023-02-20T19:54:50.712Z,101698.53
2023-02-20T19:57:17.197Z,101705.63
2023-02-20T19:59:43.768Z,101687.44
2023-02-20T20:02:11.541Z,101702.19
2023-02-20T20:04:38.202Z,101700.44
2023-02-20T20:07:04.738Z,101690.97
2023-02-20T20:09:38.938Z,101698.75
2023-02-20T20:12:26.523Z,101693.69
2023-02-20T20:14:53.631Z,101687.88
2023-02-20T20:17:20.070Z,101703.50
2023-02-20T20:19:58.542Z,101693.00
2023-02-20T20:22:26.055Z,101689.56
2023-02-20T20:24:52.699Z,101695.69
2023-02-20T20:27:20.759Z,101687.72
2023-02-20T20:29:48.708Z,101691.09
2023-02-20T20:32:17.152Z,101692.88
2023-02-20T20:34:49.183Z,101695.31
2023-02-20T20:37:16.191Z,101685.19
2023-02-20T20:39:42.708Z,101695.75
2023-02-20T20:42:09.180Z,101685.34
2023-02-20T20:44:35.596Z,101681.00
2023-02-20T20:47:03.725Z,101684.44
2023-02-20T20:49:30.172Z,101690.03
2023-02-20T20:51:56.678Z,101693.09
2023-02-20T20:54:23.167Z,101676.09
2023-02-20T20:56:51.411Z,101692.31
2023-02-20T20:59:18.239Z,101688.72
2023-02-20T21:01:45.328Z,101694.94
2023-02-20T21:04:13.119Z,101685.28
2023-02-20T21:06:39.553Z,101682.81
2023-02-20T21:09:05.986Z,101680.31
2023-02-20T21:11:35.320Z,101675.34
2023-02-20T21:14:02.131Z,101689.09
2023-02-20T21:16:28.611Z,101679.69
2023-02-20T21:18:55.129Z,101671.81
2023-02-20T21:21:29.366Z,101675.56
2023-02-20T21:23:55.920Z,101664.47
2023-02-20T21:26:22.627Z,101662.63
2023-02-20T21:28:49.560Z,101667.28
2023-02-20T21:31:17.253Z,101668.28
2023-02-20T21:33:43.966Z,101661.41
2023-02-20T21:36:10.838Z,101666.44
2023-02-20T21:38:37.299Z,101657.72
2023-02-20T21:41:04.433Z,101652.41
2023-02-20T21:43:49.407Z,101653.09
2023-02-20T21:46:18.455Z,101655.06
2023-02-20T21:48:45.300Z,101662.00
2023-02-20T21:51:12.015Z,101677.00
2023-02-20T21:53:38.701Z,101677.75
2023-02-20T21:56:05.646Z,101673.53
2023-02-20T21:58:50.539Z,101670.13
2023-02-20T22:01:17.072Z,101664.06
2023-02-20T22:03:43.459Z,101660.78
2023-02-20T22:06:09.843Z,101660.06
2023-02-20T22:08:54.961Z,101666.06
2023-02-20T22:11:39.756Z,101664.72
2023-02-20T22:14:24.816Z,101659.59
2023-02-20T22:17:10.141Z,101668.47
2023-02-20T22:19:55.017Z,101666.84
2023-02-20T22:22:40.056Z,101651.41
2023-02-20T22:25:25.473Z,101641.03
2023-02-20T22:28:10.509Z,101635.84
2023-02-20T22:30:55.325Z,101642.56
2023-02-20T22:33:40.590Z,101638.22
2023-02-20T22:36:25.868Z,101630.47
2023-02-20T22:39:10.777Z,101631.34
2023-02-20T22:41:55.629Z,101637.00
2023-02-20T22:44:41.008Z,101631.19
2023-02-20T22:47:29.586Z,101631.19
2023-02-20T22:50:14.575Z,101624.06
2023-02-20T22:52:59.495Z,101631.19
2023-02-20T22:55:44.253Z,101622.75
2023-02-20T22:58:29.170Z,101632.38
2023-02-20T23:01:14.400Z,101617.72
2023-02-20T23:03:59.990Z,101627.88
2023-02-20T23:06:45.954Z,101623.75
2023-02-20T23:09:31.630Z,101624.59
2023-02-20T23:12:16.442Z,101622.84
2023-02-20T23:15:02.560Z,101630.63
2023-02-20T23:17:47.392Z,101624.59
2023-02-20T23:20:38.663Z,101632.38
2023-02-20T23:23:25.007Z,101613.38
2023-02-20T23:26:10.497Z,101619.31
2023-02-20T23:28:55.885Z,101620.84
2023-02-20T23:31:59.390Z,101625.81
2023-02-20T23:34:46.078Z,101623.16
2023-02-20T23:37:31.451Z,101614.44
2023-02-20T23:40:24.078Z,101615.22
2023-02-20T23:43:15.876Z,101621.25
2023-02-20T23:46:00.806Z,101613.31
2023-02-20T23:48:46.012Z,101621.94
2023-02-20T23:51:32.173Z,101620.97
2023-02-20T23:54:17.558Z,101625.25
2023-02-20T23:57:02.448Z,101620.81
2023-02-20T23:59:47.308Z,101628.53
